CheckWX is a tool to help pilots better visualize weather data.  It is not intended as a substitute for an official pre-flight weather briefing.

05:41:24 UTC

KAVX METAR
Catalina Airport
Avalon, California, USA
Current

50 mins ago

KAVX 250451Z AUTO 24006KT 10SM CLR 12/06 A3018 RMK AO2 SLP214 T01220056 $
Observed
Mar-25 @ 04:51 UTC
Wind
  • 240° at 6 KTS
Visibility
10 SM
Flight Rules
VFR
Cloud Levels
  • Clear skies
Temperature
12°C / 54°F
Dewpoint
C / 43°F
Humidity
67%
Altimeter
30.18" Hg
Pressure
1021.4 hPa
Previous

2 hours ago

KAVX 250351Z AUTO 23006KT 10SM CLR 11/07 A3017 RMK AO2 SLP216 T01110067 $
Observed
Mar-25 @ 03:51 UTC
Wind
  • 230° at 6 KTS
Visibility
10 SM
Flight Rules
VFR
Cloud Levels
  • Clear skies
Temperature
11°C / 52°F
Dewpoint
C / 45°F
Humidity
77%
Altimeter
30.17" Hg
Pressure
1021.6 hPa
Previous

3 hours ago

KAVX 250251Z AUTO 24007KT 10SM CLR 12/08 A3016 RMK AO2 SLP212 T01170083 53003 $
Observed
Mar-25 @ 02:51 UTC
Wind
  • 240° at 7 KTS
Visibility
10 SM
Flight Rules
VFR
Cloud Levels
  • Clear skies
Temperature
12°C / 54°F
Dewpoint
C / 46°F
Humidity
77%
Altimeter
30.16" Hg
Pressure
1021.2 hPa